createdAt,value
2023-01-21T00:01:20.378Z,101038.52
2023-01-21T00:03:48.684Z,101028.05
2023-01-21T00:06:16.629Z,101013.45
2023-01-21T00:08:44.505Z,101008.04
2023-01-21T00:11:16.435Z,101010.19
2023-01-21T00:13:45.379Z,101012.70
2023-01-21T00:16:13.705Z,101011.71
2023-01-21T00:18:41.686Z,101012.64
2023-01-21T00:21:09.527Z,101018.04
2023-01-21T00:23:37.455Z,101020.02
2023-01-21T00:26:06.231Z,101027.48
2023-01-21T00:28:35.448Z,101026.05
2023-01-21T00:31:05.256Z,101023.92
2023-01-21T00:33:33.458Z,101030.92
2023-01-21T00:36:03.387Z,101032.35
2023-01-21T00:38:31.448Z,101029.27
2023-01-21T00:41:03.320Z,101022.83
2023-01-21T00:43:31.336Z,101032.59
2023-01-21T00:45:59.305Z,101049.65
2023-01-21T00:48:28.896Z,101066.92
2023-01-21T00:50:59.483Z,101078.40
2023-01-21T00:53:28.237Z,101097.09
2023-01-21T00:56:02.271Z,101103.28
2023-01-21T00:58:30.423Z,101117.75
2023-01-21T01:01:06.306Z,101116.77
2023-01-21T01:03:34.224Z,101115.06
2023-01-21T01:06:06.950Z,101123.89
2023-01-21T01:08:34.958Z,101118.60
2023-01-21T01:11:02.966Z,101121.28
2023-01-21T01:13:31.011Z,101147.58
2023-01-21T01:15:59.137Z,101166.90
2023-01-21T01:18:27.415Z,101178.52
2023-01-21T01:20:55.247Z,101187.04
2023-01-21T01:23:23.271Z,101184.29
2023-01-21T01:25:58.376Z,101170.49
2023-01-21T01:28:26.346Z,101169.27
2023-01-21T01:30:54.372Z,101176.27
2023-01-21T01:33:22.692Z,101187.85
2023-01-21T01:35:50.766Z,101194.30
2023-01-21T01:38:20.595Z,101197.34
2023-01-21T01:40:49.251Z,101198.59
2023-01-21T01:43:27.958Z,101201.16
2023-01-21T01:45:56.070Z,101201.04
2023-01-21T01:48:26.279Z,101212.86
2023-01-21T01:50:54.170Z,101221.16
2023-01-21T01:53:22.029Z,101232.02
2023-01-21T01:59:59.928Z,101224.39
2023-01-21T02:02:27.917Z,101221.92
2023-01-21T02:04:57.081Z,101232.45
2023-01-21T02:07:25.516Z,101230.21
2023-01-21T02:09:53.818Z,101226.31
2023-01-21T02:12:22.178Z,101215.35
2023-01-21T02:14:50.124Z,101201.98
2023-01-21T02:17:40.006Z,101203.92
2023-01-21T02:20:21.806Z,101194.46
2023-01-21T02:23:21.315Z,101183.73
2023-01-21T02:26:23.236Z,101172.86
2023-01-21T02:29:26.269Z,101162.43
2023-01-21T02:32:41.536Z,101140.86
2023-01-21T02:35:15.492Z,101135.52
2023-01-21T02:37:57.790Z,101122.05
2023-01-21T02:40:27.511Z,101135.07
2023-01-21T02:43:02.906Z,101142.86
2023-01-21T02:45:47.898Z,101157.92
2023-01-21T02:48:23.580Z,101166.09
2023-01-21T02:50:52.900Z,101168.52
2023-01-21T02:57:50.005Z,101171.64
2023-01-21T03:00:34.393Z,101180.98
2023-01-21T03:03:33.685Z,101177.48
2023-01-21T03:06:20.877Z,101187.42
2023-01-21T03:08:54.546Z,101184.02
2023-01-21T03:11:22.929Z,101183.84
2023-01-21T03:14:21.447Z,101188.30
2023-01-21T03:16:58.892Z,101187.74
2023-01-21T03:19:44.364Z,101186.84
2023-01-21T03:22:15.682Z,101208.79
2023-01-21T03:24:45.989Z,101202.52
2023-01-21T03:27:15.313Z,101217.63
2023-01-21T03:29:43.085Z,101221.18
2023-01-21T03:32:13.372Z,101221.96
2023-01-21T03:34:43.237Z,101225.59
2023-01-21T03:37:38.813Z,101228.51
2023-01-21T03:40:22.077Z,101232.71
2023-01-21T03:42:51.492Z,101228.45
2023-01-21T03:45:41.702Z,101229.08
2023-01-21T03:48:17.842Z,101236.55
2023-01-21T03:50:50.403Z,101244.94
2023-01-21T03:53:18.525Z,101221.09
2023-01-21T03:55:46.302Z,101215.15
2023-01-21T03:58:15.361Z,101228.50
2023-01-21T04:00:43.535Z,101224.31
2023-01-21T04:03:11.344Z,101223.89
2023-01-21T04:05:39.988Z,101227.33
2023-01-21T04:08:12.516Z,101227.29
2023-01-21T04:10:42.703Z,101225.41
2023-01-21T04:13:11.414Z,101225.30
2023-01-21T04:15:39.237Z,101223.40
2023-01-21T04:18:07.619Z,101230.73
2023-01-21T04:20:35.826Z,101235.40
2023-01-21T04:23:03.617Z,101234.53
2023-01-21T04:25:31.804Z,101230.92
2023-01-21T04:27:59.883Z,101235.20
2023-01-21T04:30:27.942Z,101252.09
2023-01-21T04:32:55.827Z,101279.00
2023-01-21T04:35:27.538Z,101285.10
2023-01-21T04:37:55.682Z,101270.77
2023-01-21T04:40:23.296Z,101260.69
2023-01-21T04:42:51.361Z,101275.63
2023-01-21T04:45:19.574Z,101264.90
2023-01-21T04:47:47.834Z,101258.25
2023-01-21T04:50:16.261Z,101245.94
2023-01-21T04:52:44.373Z,101243.54
2023-01-21T04:55:14.736Z,101242.32
2023-01-21T04:57:44.609Z,101256.02
2023-01-21T05:00:13.832Z,101281.46
2023-01-21T05:02:42.031Z,101290.42
2023-01-21T05:05:09.959Z,101280.02
2023-01-21T05:07:38.645Z,101269.11
2023-01-21T05:10:06.886Z,101273.94
2023-01-21T05:12:35.170Z,101274.98
2023-01-21T05:15:03.835Z,101270.36
2023-01-21T05:17:32.145Z,101269.50
2023-01-21T05:20:00.674Z,101271.44
2023-01-21T05:22:29.780Z,101276.20
2023-01-21T05:24:57.820Z,101284.63
2023-01-21T05:27:25.842Z,101292.48
2023-01-21T05:29:54.324Z,101298.00
2023-01-21T05:32:22.491Z,101300.39
2023-01-21T05:34:50.348Z,101303.42
2023-01-21T05:37:18.731Z,101322.88
2023-01-21T05:39:47.371Z,101330.48
2023-01-21T05:42:15.250Z,101348.65
2023-01-21T05:44:43.270Z,101361.05
2023-01-21T05:47:11.559Z,101355.15
2023-01-21T05:49:39.837Z,101369.81
2023-01-21T05:52:07.938Z,101387.02
2023-01-21T05:54:35.898Z,101373.91
2023-01-21T05:57:04.023Z,101380.46
2023-01-21T05:59:32.672Z,101410.84
2023-01-21T06:02:00.582Z,101407.58
2023-01-21T06:04:31.114Z,101398.02
2023-01-21T06:06:59.537Z,101413.13
2023-01-21T06:09:28.430Z,101419.96
2023-01-21T06:11:57.254Z,101421.66
2023-01-21T06:14:25.513Z,101425.33
2023-01-21T06:16:55.962Z,101424.10
2023-01-21T06:19:27.211Z,101418.98
2023-01-21T06:21:57.122Z,101425.27
2023-01-21T06:24:25.569Z,101435.07
2023-01-21T06:26:54.963Z,101441.09
2023-01-21T06:29:23.654Z,101435.61
2023-01-21T06:31:52.218Z,101442.13
2023-01-21T06:34:20.333Z,101455.23
2023-01-21T06:36:48.320Z,101460.46
2023-01-21T06:39:16.371Z,101473.85
2023-01-21T06:41:44.538Z,101478.05
2023-01-21T06:44:13.034Z,101465.06
2023-01-21T06:46:45.858Z,101459.84
2023-01-21T06:49:18.294Z,101462.71
2023-01-21T06:51:46.360Z,101457.67
2023-01-21T06:54:14.460Z,101464.64
2023-01-21T06:56:44.506Z,101471.36
2023-01-21T06:59:12.885Z,101468.52
2023-01-21T07:01:41.079Z,101473.21
2023-01-21T07:04:09.627Z,101480.92
2023-01-21T07:06:38.936Z,101474.65
2023-01-21T07:09:08.069Z,101467.52
2023-01-21T07:11:37.138Z,101451.82
2023-01-21T07:14:09.014Z,101464.73
2023-01-21T07:16:38.669Z,101469.42
2023-01-21T07:19:08.313Z,101470.27
2023-01-21T07:21:37.109Z,101473.02
2023-01-21T07:24:05.347Z,101474.13
2023-01-21T07:26:36.755Z,101478.36
2023-01-21T07:29:08.818Z,101494.48
2023-01-21T07:31:37.370Z,101498.52
2023-01-21T07:34:06.014Z,101501.44
2023-01-21T07:36:34.837Z,101506.36
2023-01-21T07:39:03.706Z,101504.14
2023-01-21T07:41:31.816Z,101503.55
2023-01-21T07:44:00.162Z,101509.15
2023-01-21T07:46:28.699Z,101512.05
2023-01-21T07:48:57.706Z,101516.87
2023-01-21T07:51:26.374Z,101521.88
2023-01-21T07:53:57.243Z,101527.02
2023-01-21T07:56:27.654Z,101528.03
2023-01-21T07:58:56.297Z,101537.42
2023-01-21T08:01:29.163Z,101545.25
2023-01-21T08:04:00.625Z,101547.71
2023-01-21T08:06:29.724Z,101548.66
2023-01-21T08:08:58.995Z,101558.70
2023-01-21T08:11:27.370Z,101567.77
2023-01-21T08:13:55.954Z,101566.55
2023-01-21T08:16:25.007Z,101573.18
2023-01-21T08:18:53.727Z,101570.35
2023-01-21T08:21:22.049Z,101578.90
2023-01-21T08:23:50.261Z,101577.30
2023-01-21T08:27:10.383Z,101583.44
2023-01-21T08:30:04.449Z,101582.15
2023-01-21T08:32:36.827Z,101581.37
2023-01-21T08:35:05.521Z,101590.08
2023-01-21T08:37:33.684Z,101595.04
2023-01-21T08:43:47.168Z,101594.92
2023-01-21T08:46:15.668Z,101592.11
2023-01-21T08:48:44.915Z,101585.94
2023-01-21T08:51:14.204Z,101582.35
2023-01-21T08:53:43.204Z,101581.95
2023-01-21T08:56:11.572Z,101584.02
2023-01-21T08:58:39.691Z,101580.21
2023-01-21T09:01:09.778Z,101587.98
2023-01-21T09:03:38.960Z,101594.11
2023-01-21T09:06:07.906Z,101594.91
2023-01-21T09:08:37.819Z,101596.27
2023-01-21T09:11:07.610Z,101593.77
2023-01-21T09:13:37.942Z,101595.32
2023-01-21T09:16:33.068Z,101596.24
2023-01-21T09:19:02.293Z,101592.36
2023-01-21T09:21:31.260Z,101596.46
2023-01-21T09:23:59.544Z,101597.97
2023-01-21T09:26:28.338Z,101599.19
2023-01-21T09:28:58.330Z,101600.20
2023-01-21T09:31:27.119Z,101600.92
2023-01-21T09:34:00.788Z,101600.70
2023-01-21T09:36:30.563Z,101600.34
2023-01-21T09:38:58.677Z,101600.95
2023-01-21T09:41:35.373Z,101602.64
2023-01-21T09:44:17.966Z,101605.59
2023-01-21T09:47:28.685Z,101605.80
2023-01-21T09:49:58.081Z,101610.35
2023-01-21T09:52:45.380Z,101609.14
2023-01-21T09:55:13.636Z,101610.13
2023-01-21T09:58:09.206Z,101611.42
2023-01-21T10:00:50.654Z,101606.30
2023-01-21T10:03:38.634Z,101606.82
2023-01-21T10:06:18.815Z,101603.41
2023-01-21T10:09:22.284Z,101602.96
2023-01-21T10:11:59.986Z,101601.09
2023-01-21T10:14:46.161Z,101601.59
2023-01-21T10:17:26.348Z,101600.31
2023-01-21T10:20:01.075Z,101600.23
2023-01-21T10:22:29.301Z,101603.79
2023-01-21T10:25:02.571Z,101611.49
2023-01-21T10:27:33.113Z,101610.39
2023-01-21T10:30:29.284Z,101619.81
2023-01-21T10:32:57.928Z,101620.51
2023-01-21T10:35:37.930Z,101619.80
2023-01-21T10:38:19.361Z,101625.83
2023-01-21T10:40:57.118Z,101627.64
2023-01-21T10:43:41.489Z,101629.38
2023-01-21T10:46:22.458Z,101630.06
2023-01-21T10:48:58.149Z,101628.85
2023-01-21T10:51:32.481Z,101630.45
2023-01-21T10:54:05.197Z,101630.48
2023-01-21T10:57:21.949Z,101630.31
2023-01-21T10:59:51.168Z,101633.19
2023-01-21T11:02:34.147Z,101635.33
2023-01-21T11:05:04.584Z,101641.80
2023-01-21T11:07:37.446Z,101646.17
2023-01-21T11:10:06.611Z,101648.99
2023-01-21T11:12:35.133Z,101653.11
2023-01-21T11:15:14.061Z,101658.30
2023-01-21T11:17:44.647Z,101656.73
2023-01-21T11:20:40.719Z,101654.02
2023-01-21T11:23:28.783Z,101656.30
2023-01-21T11:26:10.407Z,101661.13
2023-01-21T11:28:41.362Z,101664.33
2023-01-21T11:31:27.780Z,101669.24
2023-01-21T11:33:57.706Z,101672.46
2023-01-21T11:36:26.395Z,101672.80
2023-01-21T11:39:10.910Z,101676.06
2023-01-21T11:41:39.421Z,101681.39
2023-01-21T11:44:21.080Z,101682.84
2023-01-21T11:46:51.632Z,101685.95
2023-01-21T11:49:27.033Z,101686.06
2023-01-21T11:52:28.173Z,101687.85
2023-01-21T11:54:56.676Z,101689.85
2023-01-21T11:57:31.052Z,101697.44
2023-01-21T12:00:17.274Z,101702.81
2023-01-21T12:02:58.428Z,101708.23
2023-01-21T12:05:33.119Z,101713.61
2023-01-21T12:08:01.416Z,101716.35
2023-01-21T12:10:38.231Z,101724.35
2023-01-21T12:13:30.036Z,101725.75
2023-01-21T12:16:31.676Z,101732.54
2023-01-21T12:19:21.162Z,101739.37
2023-01-21T12:22:17.503Z,101742.17
2023-01-21T12:25:04.734Z,101750.80
2023-01-21T12:27:54.422Z,101759.81
2023-01-21T12:30:26.146Z,101762.31
2023-01-21T12:33:01.551Z,101764.61
2023-01-21T12:35:36.841Z,101762.27
2023-01-21T12:38:15.790Z,101768.48
2023-01-21T12:40:55.943Z,101772.73
2023-01-21T12:43:27.444Z,101777.54
2023-01-21T12:46:20.170Z,101783.42
2023-01-21T12:48:54.928Z,101787.30
2023-01-21T12:51:29.977Z,101791.44
2023-01-21T12:54:00.047Z,101789.73
2023-01-21T12:56:44.898Z,101788.73
2023-01-21T12:59:31.773Z,101796.42
2023-01-21T13:02:15.195Z,101794.98
2023-01-21T13:05:02.547Z,101801.23
2023-01-21T13:07:34.524Z,101806.19
2023-01-21T13:10:14.630Z,101806.70
2023-01-21T13:12:44.516Z,101808.04
2023-01-21T13:15:19.016Z,101811.04
2023-01-21T13:17:56.542Z,101817.89
2023-01-21T13:20:25.748Z,101817.45
2023-01-21T13:23:26.167Z,101812.98
2023-01-21T13:25:59.470Z,101820.86
2023-01-21T13:28:46.072Z,101823.02
2023-01-21T13:31:35.677Z,101823.80
2023-01-21T13:34:13.236Z,101823.54
2023-01-21T13:36:55.949Z,101826.39
2023-01-21T13:39:29.172Z,101830.70
2023-01-21T13:42:20.496Z,101831.45
2023-01-21T13:44:53.054Z,101834.43
2023-01-21T13:47:56.400Z,101838.56
2023-01-21T13:50:37.677Z,101839.84
2023-01-21T13:53:33.479Z,101838.83
2023-01-21T13:56:19.433Z,101843.23
2023-01-21T13:58:59.772Z,101845.41
2023-01-21T14:01:35.932Z,101844.95
2023-01-21T14:04:09.158Z,101850.11
2023-01-21T14:06:46.147Z,101853.02
2023-01-21T14:09:19.832Z,101864.83
2023-01-21T14:11:58.283Z,101870.98
2023-01-21T14:14:52.094Z,101874.85
2023-01-21T14:17:39.726Z,101882.25
2023-01-21T14:23:48.417Z,101890.14
2023-01-21T14:26:42.815Z,101889.77
2023-01-21T14:29:32.639Z,101889.70
2023-01-21T14:32:23.163Z,101892.67
2023-01-21T14:34:54.731Z,101893.97
2023-01-21T14:37:33.082Z,101895.72
2023-01-21T14:40:20.366Z,101900.03
2023-01-21T14:42:50.491Z,101903.88
2023-01-21T14:45:22.747Z,101904.40
2023-01-21T14:47:55.546Z,101907.78
2023-01-21T14:50:51.966Z,101905.96
2023-01-21T14:53:26.086Z,101909.06
2023-01-21T14:56:16.091Z,101913.42
2023-01-21T14:59:11.620Z,101916.20
2023-01-21T15:01:43.019Z,101919.48
2023-01-21T15:04:30.374Z,101926.79
2023-01-21T15:07:09.322Z,101928.34
2023-01-21T15:09:39.100Z,101937.06
2023-01-21T15:12:14.932Z,101942.17
2023-01-21T15:14:45.555Z,101945.45
2023-01-21T15:17:46.713Z,101949.01
2023-01-21T15:20:42.252Z,101950.23
2023-01-21T15:23:29.301Z,101950.45
2023-01-21T15:26:13.695Z,101948.77
2023-01-21T15:28:48.253Z,101955.70
2023-01-21T15:31:19.933Z,101961.12
2023-01-21T15:33:55.362Z,101963.84
2023-01-21T15:36:33.244Z,101965.17
2023-01-21T15:39:23.568Z,101964.54
2023-01-21T15:42:26.016Z,101964.77
2023-01-21T15:45:06.168Z,101970.02
2023-01-21T15:47:58.736Z,101976.33
2023-01-21T15:50:46.837Z,101981.33
2023-01-21T15:53:39.459Z,101986.66
2023-01-21T15:56:13.266Z,101988.70
2023-01-21T15:58:57.713Z,101993.34
2023-01-21T16:01:37.634Z,101996.73
2023-01-21T16:04:45.398Z,102000.13
2023-01-21T16:07:29.549Z,102004.03
2023-01-21T16:10:10.785Z,102005.39
2023-01-21T16:13:04.386Z,102002.81
2023-01-21T16:15:56.434Z,102005.14
2023-01-21T16:18:53.843Z,102006.40
2023-01-21T16:21:25.779Z,102008.77
2023-01-21T16:23:54.825Z,102013.76
2023-01-21T16:26:31.264Z,102015.18
2023-01-21T16:29:04.219Z,102019.41
2023-01-21T16:31:48.298Z,102018.65
2023-01-21T16:34:40.380Z,102013.66
2023-01-21T16:37:35.403Z,102015.29
2023-01-21T16:40:32.223Z,102014.39
2023-01-21T16:43:23.491Z,102015.50
2023-01-21T16:46:04.252Z,102018.84
2023-01-21T16:48:35.354Z,102026.70
2023-01-21T16:51:04.260Z,102030.36
2023-01-21T16:53:33.572Z,102033.68
2023-01-21T16:56:12.139Z,102033.14
2023-01-21T16:58:41.841Z,102035.86
2023-01-21T17:01:23.835Z,102041.70
2023-01-21T17:03:53.832Z,102041.83
2023-01-21T17:06:31.179Z,102048.05
2023-01-21T17:09:07.964Z,102045.09
2023-01-21T17:11:40.511Z,102048.73
2023-01-21T17:14:16.193Z,102053.35
2023-01-21T17:16:49.104Z,102057.15
2023-01-21T17:19:24.303Z,102057.34
2023-01-21T17:21:59.334Z,102060.13
2023-01-21T17:24:39.361Z,102062.48
2023-01-21T17:27:14.514Z,102060.81
2023-01-21T17:29:45.921Z,102062.98
2023-01-21T17:32:35.051Z,102061.42
2023-01-21T17:35:22.790Z,102062.33
2023-01-21T17:38:03.464Z,102063.38
2023-01-21T17:40:42.878Z,102064.41
2023-01-21T17:43:21.915Z,102063.58
2023-01-21T17:45:52.390Z,102068.10
2023-01-21T17:48:24.849Z,102072.59
2023-01-21T17:51:02.210Z,102073.58
2023-01-21T17:53:36.104Z,102076.30
2023-01-21T17:56:08.072Z,102081.00
2023-01-21T17:58:55.881Z,102078.99
2023-01-21T18:01:30.600Z,102078.66
2023-01-21T18:04:01.971Z,102076.96
2023-01-21T18:06:37.210Z,102078.55
2023-01-21T18:09:07.851Z,102077.84
2023-01-21T18:11:40.480Z,102079.78
2023-01-21T18:14:20.235Z,102083.44
2023-01-21T18:16:52.041Z,102082.50
2023-01-21T18:19:32.292Z,102083.91
2023-01-21T18:22:09.919Z,102084.13
2023-01-21T18:24:39.556Z,102081.01
2023-01-21T18:27:09.564Z,102079.48
2023-01-21T18:29:40.787Z,102080.45
2023-01-21T18:32:18.868Z,102088.48
2023-01-21T18:34:50.121Z,102092.16
2023-01-21T18:37:21.244Z,102090.67
2023-01-21T18:39:51.375Z,102093.84
2023-01-21T18:42:19.825Z,102099.72
2023-01-21T18:44:51.657Z,102097.27
2023-01-21T18:47:22.382Z,102100.80
2023-01-21T18:49:54.280Z,102107.31
2023-01-21T18:52:24.349Z,102111.09
2023-01-21T18:54:54.222Z,102112.02
2023-01-21T18:57:22.857Z,102113.64
2023-01-21T18:59:55.929Z,102114.08
2023-01-21T19:02:26.004Z,102116.10
2023-01-21T19:04:58.705Z,102119.01
2023-01-21T19:07:28.598Z,102120.70
2023-01-21T19:10:10.463Z,102119.83
2023-01-21T19:12:41.709Z,102120.59
2023-01-21T19:15:25.936Z,102121.05
2023-01-21T19:18:02.643Z,102118.85
2023-01-21T19:20:35.714Z,102119.69
2023-01-21T19:23:07.383Z,102124.55
2023-01-21T19:25:36.756Z,102124.55
2023-01-21T19:28:05.403Z,102125.27
2023-01-21T19:30:39.297Z,102127.29
2023-01-21T19:33:12.392Z,102126.96
2023-01-21T19:35:45.802Z,102127.69
2023-01-21T19:38:21.162Z,102127.63
2023-01-21T19:40:51.852Z,102127.48
2023-01-21T19:43:22.572Z,102128.54
2023-01-21T19:45:53.537Z,102126.71
2023-01-21T19:48:22.204Z,102131.94
2023-01-21T19:50:50.402Z,102133.13
2023-01-21T19:53:21.534Z,102137.17
2023-01-21T19:55:51.360Z,102137.80
2023-01-21T19:58:21.570Z,102139.98
2023-01-21T20:00:51.627Z,102146.89
2023-01-21T20:03:23.603Z,102145.90
2023-01-21T20:05:58.343Z,102147.89
2023-01-21T20:08:31.299Z,102144.70
2023-01-21T20:10:59.905Z,102148.28
2023-01-21T20:13:31.901Z,102150.80
2023-01-21T20:16:03.194Z,102151.80
2023-01-21T20:18:33.116Z,102155.52
2023-01-21T20:21:01.020Z,102154.09
2023-01-21T20:23:29.540Z,102158.15
2023-01-21T20:25:58.622Z,102157.83
2023-01-21T20:28:28.337Z,102155.70
2023-01-21T20:30:56.387Z,102159.27
2023-01-21T20:33:26.938Z,102159.88
2023-01-21T20:35:56.173Z,102160.31
2023-01-21T20:38:31.771Z,102161.86
2023-01-21T20:41:00.499Z,102164.92
2023-01-21T20:43:30.075Z,102165.48
2023-01-21T20:46:02.495Z,102174.20
2023-01-21T20:48:36.052Z,102174.40
2023-01-21T20:51:04.448Z,102173.20
2023-01-21T20:53:32.695Z,102168.86
2023-01-21T20:59:43.534Z,102175.90
2023-01-21T21:02:12.570Z,102178.46
2023-01-21T21:04:40.931Z,102172.67
2023-01-21T21:07:15.436Z,102173.24
2023-01-21T21:09:43.375Z,102169.25
2023-01-21T21:12:11.176Z,102173.05
2023-01-21T21:14:39.262Z,102172.60
2023-01-21T21:17:13.170Z,102173.77
2023-01-21T21:19:40.955Z,102167.56
2023-01-21T21:22:08.828Z,102166.79
2023-01-21T21:24:36.650Z,102169.71
2023-01-21T21:27:04.606Z,102172.30
2023-01-21T21:29:32.605Z,102173.54
2023-01-21T21:32:04.633Z,102176.34
2023-01-21T21:34:34.439Z,102178.77
2023-01-21T21:37:02.363Z,102176.81
2023-01-21T21:39:30.087Z,102174.08
2023-01-21T21:42:16.905Z,102175.92
2023-01-21T21:44:44.687Z,102174.41
2023-01-21T21:47:30.929Z,102176.55
2023-01-21T21:49:59.084Z,102175.30
2023-01-21T21:52:27.108Z,102174.79
2023-01-21T21:54:56.376Z,102175.52
2023-01-21T21:57:24.210Z,102174.32
2023-01-21T21:59:52.117Z,102179.13
2023-01-21T22:02:20.138Z,102186.02
2023-01-21T22:04:48.138Z,102184.64
2023-01-21T22:07:16.174Z,102179.45
2023-01-21T22:09:44.082Z,102178.80
2023-01-21T22:12:11.848Z,102183.96
2023-01-21T22:14:39.788Z,102183.86
2023-01-21T22:17:09.062Z,102186.11
2023-01-21T22:19:37.894Z,102185.33
2023-01-21T22:22:07.171Z,102187.88
2023-01-21T22:24:35.048Z,102185.61
2023-01-21T22:27:02.968Z,102181.30
2023-01-21T22:29:30.988Z,102180.30
2023-01-21T22:31:58.815Z,102178.08
2023-01-21T22:34:26.672Z,102180.58
2023-01-21T22:36:54.686Z,102186.78
2023-01-21T22:39:22.559Z,102189.12
2023-01-21T22:41:50.318Z,102187.05
2023-01-21T22:44:18.294Z,102184.10
2023-01-21T22:46:46.733Z,102184.81
2023-01-21T22:49:14.766Z,102181.42
2023-01-21T22:51:42.627Z,102176.66
2023-01-21T22:54:10.897Z,102180.59
2023-01-21T22:56:52.925Z,102182.84
2023-01-21T22:59:21.439Z,102189.32
2023-01-21T23:01:51.584Z,102191.52
2023-01-21T23:04:19.434Z,102191.14
2023-01-21T23:06:49.130Z,102188.50
2023-01-21T23:09:16.972Z,102189.35
2023-01-21T23:11:45.488Z,102192.52
2023-01-21T23:14:13.390Z,102195.23
2023-01-21T23:16:41.285Z,102196.46
2023-01-21T23:19:09.087Z,102197.85
2023-01-21T23:21:38.939Z,102200.49
2023-01-21T23:24:07.497Z,102200.14
2023-01-21T23:26:35.330Z,102203.99
2023-01-21T23:29:03.226Z,102213.48
2023-01-21T23:31:31.318Z,102212.80
2023-01-21T23:33:59.667Z,102217.05
2023-01-21T23:36:27.436Z,102221.19
2023-01-21T23:38:55.364Z,102222.36
2023-01-21T23:41:23.169Z,102222.42
2023-01-21T23:43:51.091Z,102225.04
2023-01-21T23:46:20.054Z,102226.25
2023-01-21T23:48:48.426Z,102229.84
2023-01-21T23:51:16.963Z,102230.29
2023-01-21T23:53:45.704Z,102233.23
2023-01-21T23:56:15.384Z,102243.81
2023-01-21T23:58:43.275Z,102244.71
